createdAt,value
2022-07-30T00:00:29.627Z,111.10
2022-07-30T00:01:24.942Z,112.15
2022-07-30T00:02:20.179Z,110.95
2022-07-30T00:03:16.679Z,110.73
2022-07-30T00:04:11.914Z,110.66
2022-07-30T00:05:07.670Z,110.37
2022-07-30T00:06:02.906Z,111.47
2022-07-30T00:06:58.319Z,111.62
2022-07-30T00:07:53.387Z,111.85
2022-07-30T00:08:48.659Z,113.14
2022-07-30T00:09:43.865Z,113.91
2022-07-30T00:10:39.241Z,114.22
2022-07-30T00:11:34.920Z,114.53
2022-07-30T00:12:30.137Z,114.77
2022-07-30T00:13:25.400Z,114.85
2022-07-30T00:14:21.141Z,113.52
2022-07-30T00:15:16.621Z,113.60
2022-07-30T00:16:11.805Z,113.52
2022-07-30T00:17:07.105Z,113.21
2022-07-30T00:18:02.155Z,112.15
2022-07-30T00:18:57.246Z,112.30
2022-07-30T00:19:52.327Z,112.60
2022-07-30T00:20:47.323Z,112.91
2022-07-30T00:21:42.366Z,110.66
2022-07-30T00:22:37.417Z,110.59
2022-07-30T00:23:32.669Z,110.88
2022-07-30T00:24:27.889Z,111.47
2022-07-30T00:25:23.000Z,110.08
2022-07-30T00:26:18.095Z,110.37
2022-07-30T00:27:13.202Z,110.88
2022-07-30T00:28:08.335Z,110.95
2022-07-30T00:29:03.335Z,111.32
2022-07-30T00:29:58.290Z,111.55
2022-07-30T00:30:56.126Z,112.60
2022-07-30T00:31:48.387Z,112.98
2022-07-30T00:32:43.487Z,112.68
2022-07-30T00:33:38.624Z,111.62
2022-07-30T00:34:33.566Z,110.81
2022-07-30T00:35:28.661Z,111.10
2022-07-30T00:36:23.880Z,112.15
2022-07-30T00:37:18.873Z,112.00
2022-07-30T00:38:13.930Z,112.22
2022-07-30T00:39:08.972Z,112.30
2022-07-30T00:40:04.063Z,112.91
2022-07-30T00:40:59.091Z,112.75
2022-07-30T00:41:54.176Z,113.60
2022-07-30T00:42:49.279Z,114.30
2022-07-30T00:43:44.220Z,114.22
2022-07-30T00:44:41.028Z,113.91
2022-07-30T00:45:34.562Z,114.53
2022-07-30T00:46:29.832Z,113.52
2022-07-30T00:47:25.179Z,112.91
2022-07-30T00:48:20.527Z,112.45
2022-07-30T00:49:15.795Z,111.70
2022-07-30T00:50:10.999Z,111.77
2022-07-30T00:51:06.227Z,112.07
2022-07-30T00:52:01.452Z,111.77
2022-07-30T00:52:56.660Z,111.85
2022-07-30T00:53:51.925Z,111.47
2022-07-30T00:54:46.995Z,112.15
2022-07-30T00:55:42.061Z,111.32
2022-07-30T00:56:37.157Z,111.62
2022-07-30T00:57:32.226Z,111.25
2022-07-30T00:58:27.349Z,110.88
2022-07-30T00:59:22.422Z,110.66
2022-07-30T01:00:17.523Z,110.00
2022-07-30T01:01:12.673Z,109.71
2022-07-30T01:02:07.694Z,109.21
2022-07-30T01:03:02.703Z,108.71
2022-07-30T01:03:57.655Z,109.21
2022-07-30T01:04:52.807Z,109.00
2022-07-30T01:05:47.771Z,108.50
2022-07-30T01:06:42.851Z,108.78
2022-07-30T01:07:37.963Z,109.36
2022-07-30T01:08:33.049Z,110.15
2022-07-30T01:09:28.150Z,110.44
2022-07-30T01:10:23.221Z,110.95
2022-07-30T01:11:18.441Z,111.70
2022-07-30T01:12:13.524Z,112.30
2022-07-30T01:13:09.478Z,112.37
2022-07-30T01:14:04.679Z,112.91
2022-07-30T01:15:00.029Z,113.83
2022-07-30T01:15:55.159Z,114.46
2022-07-30T01:16:50.415Z,115.25
2022-07-30T01:17:45.660Z,114.22
2022-07-30T01:18:40.890Z,114.46
2022-07-30T01:19:35.885Z,113.52
2022-07-30T01:20:30.938Z,113.44
2022-07-30T01:21:26.038Z,115.25
2022-07-30T01:22:24.154Z,115.72
2022-07-30T01:23:19.584Z,115.97
2022-07-30T01:24:14.809Z,116.61
2022-07-30T01:25:10.060Z,117.11
2022-07-30T01:26:05.277Z,117.35
2022-07-30T01:27:00.984Z,116.37
2022-07-30T01:27:55.827Z,116.61
2022-07-30T01:28:51.193Z,116.05
2022-07-30T01:29:46.452Z,115.40
2022-07-30T01:30:41.658Z,116.37
2022-07-30T01:31:36.902Z,115.64
2022-07-30T01:32:32.143Z,115.64
2022-07-30T01:33:27.497Z,116.86
2022-07-30T01:34:22.858Z,115.81
2022-07-30T01:35:17.834Z,115.01
2022-07-30T01:36:13.075Z,115.32
2022-07-30T01:37:08.406Z,116.05
2022-07-30T01:38:03.505Z,116.21
2022-07-30T01:38:58.755Z,117.27
2022-07-30T01:39:54.003Z,117.27
2022-07-30T01:40:49.217Z,118.52
2022-07-30T01:41:44.502Z,119.45
2022-07-30T01:42:39.756Z,119.88
2022-07-30T01:43:35.023Z,118.94
2022-07-30T01:44:30.382Z,119.88
2022-07-30T01:45:25.638Z,119.45
2022-07-30T01:46:20.915Z,119.03
2022-07-30T01:47:16.125Z,119.54
2022-07-30T01:48:11.360Z,119.62
2022-07-30T01:49:06.732Z,120.40
2022-07-30T01:50:01.829Z,121.01
2022-07-30T01:50:57.166Z,120.23
2022-07-30T01:51:52.409Z,119.71
2022-07-30T01:52:49.038Z,118.27
2022-07-30T01:53:42.845Z,117.52
2022-07-30T01:54:40.647Z,117.02
2022-07-30T01:55:35.741Z,117.52
2022-07-30T01:56:30.949Z,118.69
2022-07-30T01:57:26.247Z,118.94
2022-07-30T01:58:21.748Z,119.54
2022-07-30T01:59:16.978Z,119.28
2022-07-30T02:00:12.204Z,118.77
2022-07-30T02:01:07.442Z,117.11
2022-07-30T02:02:02.333Z,116.94
2022-07-30T02:02:57.554Z,117.02
2022-07-30T02:03:52.733Z,117.52
2022-07-30T02:04:53.725Z,117.27
2022-07-30T02:05:48.945Z,116.86
2022-07-30T02:06:44.273Z,117.52
2022-07-30T02:07:39.543Z,116.70
2022-07-30T02:08:34.911Z,117.19
2022-07-30T02:09:30.263Z,117.77
2022-07-30T02:10:25.367Z,118.69
2022-07-30T02:11:20.614Z,118.60
2022-07-30T02:12:15.879Z,119.03
2022-07-30T02:13:11.092Z,119.28
2022-07-30T02:14:06.333Z,119.97
2022-07-30T02:15:01.601Z,120.23
2022-07-30T02:15:56.793Z,121.28
2022-07-30T02:16:52.024Z,122.34
2022-07-30T02:17:47.279Z,123.34
2022-07-30T02:18:42.640Z,123.06
2022-07-30T02:19:41.752Z,123.79
2022-07-30T02:20:33.494Z,124.07
2022-07-30T02:21:32.156Z,123.79
2022-07-30T02:22:25.180Z,123.34
2022-07-30T02:23:19.450Z,122.61
2022-07-30T02:24:14.652Z,122.07
2022-07-30T02:25:09.909Z,121.36
2022-07-30T02:26:05.125Z,121.99
2022-07-30T02:27:00.625Z,121.81
2022-07-30T02:27:55.589Z,121.72
2022-07-30T02:28:50.815Z,122.07
2022-07-30T02:29:46.037Z,122.70
2022-07-30T02:30:41.384Z,123.06
2022-07-30T02:31:36.893Z,123.15
2022-07-30T02:32:32.031Z,123.15
2022-07-30T02:33:27.239Z,123.61
2022-07-30T02:34:22.486Z,122.97
2022-07-30T02:35:17.840Z,122.88
2022-07-30T02:36:13.038Z,122.34
2022-07-30T02:37:08.285Z,124.16
2022-07-30T02:38:03.527Z,123.52
2022-07-30T02:38:58.746Z,123.61
2022-07-30T02:39:53.955Z,124.35
2022-07-30T02:40:49.166Z,124.07
2022-07-30T02:41:47.934Z,125.09
2022-07-30T02:42:40.674Z,125.47
2022-07-30T02:43:36.152Z,125.75
2022-07-30T02:44:30.223Z,125.66
2022-07-30T02:45:25.434Z,126.04
2022-07-30T02:46:20.693Z,126.13
2022-07-30T02:47:15.920Z,126.23
2022-07-30T02:48:11.391Z,126.52
2022-07-30T02:49:07.544Z,126.71
2022-07-30T02:50:01.782Z,126.71
2022-07-30T02:50:57.021Z,127.68
2022-07-30T02:51:52.481Z,126.90
2022-07-30T02:52:47.811Z,127.48
2022-07-30T02:53:43.056Z,128.07
2022-07-30T02:54:38.265Z,128.66
2022-07-30T02:55:33.469Z,128.07
2022-07-30T02:56:28.867Z,127.58
2022-07-30T02:57:24.092Z,128.86
2022-07-30T02:58:19.341Z,129.56
2022-07-30T02:59:14.412Z,129.96
2022-07-30T03:00:09.481Z,130.27
2022-07-30T03:01:04.578Z,131.50
2022-07-30T03:01:59.724Z,132.02
2022-07-30T03:02:56.718Z,131.09
2022-07-30T03:03:49.807Z,130.99
2022-07-30T03:04:44.796Z,130.78
2022-07-30T03:05:39.879Z,128.76
2022-07-30T03:06:34.974Z,129.16
2022-07-30T03:07:30.070Z,130.47
2022-07-30T03:08:25.035Z,130.99
2022-07-30T03:09:20.122Z,131.19
2022-07-30T03:10:15.175Z,132.65
2022-07-30T03:11:10.279Z,133.39
2022-07-30T03:12:05.370Z,134.79
2022-07-30T03:13:00.388Z,133.39
2022-07-30T03:13:55.452Z,133.18
2022-07-30T03:14:50.679Z,132.23
2022-07-30T03:15:45.995Z,131.60
2022-07-30T03:16:41.323Z,132.02
2022-07-30T03:17:36.915Z,132.65
2022-07-30T03:18:32.247Z,132.86
2022-07-30T03:19:28.159Z,132.23
2022-07-30T03:20:23.317Z,131.19
2022-07-30T03:21:18.672Z,130.47
2022-07-30T03:22:14.452Z,131.71
2022-07-30T03:23:09.662Z,132.44
2022-07-30T03:24:05.116Z,133.29
2022-07-30T03:25:01.143Z,133.39
2022-07-30T03:25:56.572Z,133.50
2022-07-30T03:26:52.101Z,133.29
2022-07-30T03:27:47.429Z,133.18
2022-07-30T03:28:42.792Z,132.65
2022-07-30T03:29:38.461Z,132.76
2022-07-30T03:30:33.675Z,132.65
2022-07-30T03:31:36.374Z,130.37
2022-07-30T03:32:25.970Z,129.46
2022-07-30T03:33:20.540Z,129.86
2022-07-30T03:34:15.860Z,130.27
2022-07-30T03:35:16.921Z,130.88
2022-07-30T03:36:07.996Z,131.50
2022-07-30T03:37:03.183Z,131.92
2022-07-30T03:37:58.273Z,132.23
2022-07-30T03:38:53.967Z,133.61
2022-07-30T03:39:49.226Z,132.65
2022-07-30T03:40:44.551Z,133.50
2022-07-30T03:41:40.246Z,130.78
2022-07-30T03:42:35.546Z,130.88
2022-07-30T03:43:33.223Z,131.29
2022-07-30T03:44:27.175Z,131.29
2022-07-30T03:45:22.456Z,132.02
2022-07-30T03:46:18.356Z,131.92
2022-07-30T03:47:13.575Z,132.23
2022-07-30T03:48:08.836Z,132.86
2022-07-30T03:49:04.780Z,131.50
2022-07-30T03:50:00.013Z,132.86
2022-07-30T03:50:55.963Z,132.97
2022-07-30T03:51:51.175Z,133.61
2022-07-30T03:52:46.559Z,133.29
2022-07-30T03:53:42.397Z,134.04
2022-07-30T03:54:37.712Z,134.79
2022-07-30T03:55:33.162Z,134.47
2022-07-30T03:56:29.341Z,135.23
2022-07-30T03:57:24.654Z,134.36
2022-07-30T03:58:20.407Z,133.29
2022-07-30T03:59:15.742Z,132.44
2022-07-30T04:00:11.280Z,132.97
2022-07-30T04:01:06.788Z,133.29
2022-07-30T04:02:07.264Z,133.93
2022-07-30T04:02:58.893Z,135.34
2022-07-30T04:03:53.297Z,136.00
2022-07-30T04:04:48.850Z,136.78
2022-07-30T04:05:44.888Z,136.22
2022-07-30T04:06:40.189Z,134.90
2022-07-30T04:07:35.511Z,133.39
2022-07-30T04:08:32.803Z,132.02
2022-07-30T04:09:27.192Z,130.88
2022-07-30T04:10:22.963Z,130.07
2022-07-30T04:11:18.302Z,128.76
2022-07-30T04:12:13.719Z,126.52
2022-07-30T04:13:09.758Z,124.25
2022-07-30T04:14:04.538Z,123.61
2022-07-30T04:14:59.623Z,122.61
2022-07-30T04:16:37.623Z,122.79
2022-07-30T04:16:50.794Z,121.63
2022-07-30T04:17:44.798Z,122.79
2022-07-30T04:18:39.869Z,122.07
2022-07-30T04:19:34.961Z,120.84
2022-07-30T04:20:29.937Z,119.20
2022-07-30T04:21:28.635Z,118.77
2022-07-30T04:22:23.691Z,116.86
2022-07-30T04:23:18.746Z,116.37
2022-07-30T04:24:13.833Z,116.78
2022-07-30T04:25:08.867Z,115.25
2022-07-30T04:26:03.891Z,115.89
2022-07-30T04:26:59.400Z,114.69
2022-07-30T04:27:58.459Z,112.83
2022-07-30T04:28:50.142Z,113.37
2022-07-30T04:29:44.283Z,94.49
2022-07-30T04:30:39.371Z,92.26
2022-07-30T04:31:34.616Z,95.11
2022-07-30T04:32:32.391Z,96.46
2022-07-30T04:33:26.400Z,98.98
2022-07-30T04:34:21.411Z,102.00
2022-07-30T04:35:50.172Z,103.91
2022-07-30T04:36:16.430Z,104.89
2022-07-30T04:37:08.971Z,106.63
2022-07-30T04:38:04.027Z,107.18
2022-07-30T04:38:59.084Z,107.66
2022-07-30T04:39:54.105Z,107.94
2022-07-30T04:40:49.120Z,108.57
2022-07-30T04:41:48.645Z,109.00
2022-07-30T04:42:41.339Z,109.57
2022-07-30T04:43:36.880Z,110.08
2022-07-30T04:44:32.580Z,110.88
2022-07-30T04:45:28.073Z,110.95
2022-07-30T04:46:24.751Z,110.59
2022-07-30T04:47:19.264Z,110.95
2022-07-30T04:48:14.678Z,110.51
2022-07-30T04:49:10.272Z,110.29
2022-07-30T04:50:06.438Z,109.93
2022-07-30T04:51:01.900Z,110.37
2022-07-30T04:51:57.614Z,109.57
2022-07-30T04:52:53.017Z,109.28
2022-07-30T04:53:48.456Z,108.86
2022-07-30T04:54:44.426Z,108.57
2022-07-30T04:55:39.835Z,106.49
2022-07-30T04:56:35.583Z,105.28
2022-07-30T04:57:31.016Z,105.35
2022-07-30T04:58:26.476Z,105.15
2022-07-30T04:59:22.457Z,105.35
2022-07-30T05:00:17.878Z,105.95
2022-07-30T05:01:13.358Z,108.08
2022-07-30T05:02:09.652Z,109.79
2022-07-30T05:03:05.084Z,113.06
2022-07-30T05:04:00.931Z,115.72
2022-07-30T05:04:56.413Z,119.37
2022-07-30T05:05:56.762Z,121.10
2022-07-30T05:06:48.531Z,124.07
2022-07-30T05:07:43.007Z,125.47
2022-07-30T05:08:38.819Z,126.04
2022-07-30T05:09:34.136Z,126.61
2022-07-30T05:10:29.538Z,126.90
2022-07-30T05:11:25.265Z,126.52
2022-07-30T05:12:20.701Z,127.68
2022-07-30T05:13:16.119Z,128.86
2022-07-30T05:14:12.394Z,124.63
2022-07-30T05:15:07.771Z,121.45
2022-07-30T05:16:03.749Z,123.06
2022-07-30T05:16:59.369Z,122.61
2022-07-30T05:17:54.670Z,125.28
2022-07-30T05:18:50.399Z,128.56
2022-07-30T05:19:45.809Z,129.16
2022-07-30T05:20:41.688Z,127.78
2022-07-30T05:21:37.007Z,126.04
2022-07-30T05:22:32.449Z,127.00
2022-07-30T05:23:28.210Z,129.46
2022-07-30T05:24:23.616Z,130.78
2022-07-30T05:25:19.044Z,131.19
2022-07-30T05:26:15.326Z,130.78
2022-07-30T05:27:10.774Z,130.07
2022-07-30T05:28:06.637Z,127.58
2022-07-30T05:29:04.075Z,130.47
2022-07-30T05:29:58.957Z,132.13
2022-07-30T05:30:53.443Z,132.76
2022-07-30T05:31:49.277Z,131.71
2022-07-30T05:32:44.711Z,130.17
2022-07-30T05:33:42.466Z,129.56
2022-07-30T05:34:35.173Z,127.09
2022-07-30T05:35:30.316Z,127.39
2022-07-30T05:36:29.123Z,127.68
2022-07-30T05:37:24.681Z,127.58
2022-07-30T05:38:19.987Z,128.76
2022-07-30T05:39:15.754Z,130.47
2022-07-30T05:40:11.183Z,129.96
2022-07-30T05:41:19.042Z,128.46
2022-07-30T05:42:04.114Z,129.46
2022-07-30T05:42:58.624Z,130.78
2022-07-30T05:43:55.953Z,133.71
2022-07-30T05:44:49.717Z,137.35
2022-07-30T05:45:45.172Z,142.63
2022-07-30T05:46:40.803Z,147.03
2022-07-30T05:47:36.659Z,145.11
2022-07-30T05:48:32.013Z,147.81
2022-07-30T05:49:27.555Z,151.57
2022-07-30T05:50:23.267Z,153.38
2022-07-30T05:51:18.688Z,164.41
2022-07-30T05:52:14.120Z,175.29
2022-07-30T05:53:10.449Z,180.80
2022-07-30T05:54:05.850Z,183.99
2022-07-30T05:55:01.709Z,185.83
2022-07-30T05:55:57.144Z,182.18
2022-07-30T05:56:52.568Z,185.01
2022-07-30T05:57:48.286Z,185.41
2022-07-30T05:58:43.706Z,188.29
2022-07-30T05:59:39.566Z,185.42
2022-07-30T06:00:34.887Z,179.24
2022-07-30T06:01:30.349Z,176.77
2022-07-30T06:02:25.758Z,185.21
2022-07-30T06:03:21.205Z,185.41
2022-07-30T06:04:18.023Z,182.18
2022-07-30T06:05:13.464Z,168.90
2022-07-30T06:06:08.928Z,165.71
2022-07-30T06:07:04.896Z,170.28
2022-07-30T06:08:00.198Z,172.39
2022-07-30T06:08:55.643Z,176.77
2022-07-30T06:09:51.084Z,179.63
2022-07-30T06:10:47.311Z,182.58
2022-07-30T06:11:42.742Z,185.94
2022-07-30T06:12:38.171Z,180.21
2022-07-30T06:13:36.862Z,186.66
2022-07-30T06:14:32.417Z,186.04
2022-07-30T06:15:27.710Z,185.21
2022-07-30T06:16:23.388Z,179.63
2022-07-30T06:17:18.413Z,172.21
2022-07-30T06:18:13.447Z,151.02
2022-07-30T06:19:08.516Z,145.36
2022-07-30T06:20:08.452Z,150.34
2022-07-30T06:21:02.519Z,156.25
2022-07-30T06:22:05.609Z,164.25
2022-07-30T06:22:53.580Z,166.71
2022-07-30T06:23:47.679Z,163.44
2022-07-30T06:24:42.689Z,166.71
2022-07-30T06:25:38.919Z,174.74
2022-07-30T06:26:32.732Z,177.34
2022-07-30T06:27:31.296Z,178.10
2022-07-30T06:28:39.417Z,178.48
2022-07-30T06:29:19.787Z,180.99
2022-07-30T06:30:14.550Z,178.67
2022-07-30T06:31:10.035Z,175.29
2022-07-30T06:32:05.431Z,171.51
2022-07-30T06:33:01.939Z,176.77
2022-07-30T06:33:57.371Z,175.66
2022-07-30T06:35:01.009Z,173.83
2022-07-30T06:35:49.502Z,170.63
2022-07-30T06:36:44.071Z,173.47
2022-07-30T06:38:00.671Z,178.10
2022-07-30T06:38:36.747Z,180.99
2022-07-30T06:39:55.976Z,178.67
2022-07-30T06:40:28.171Z,177.90
2022-07-30T06:41:22.676Z,178.67
2022-07-30T06:42:18.079Z,177.72
2022-07-30T06:43:13.910Z,178.10
2022-07-30T06:44:09.233Z,179.05
2022-07-30T06:45:04.708Z,190.25
2022-07-30T06:46:00.551Z,199.87
2022-07-30T06:46:55.849Z,199.51
2022-07-30T06:47:51.396Z,190.03
2022-07-30T06:48:47.655Z,190.25
2022-07-30T06:49:43.042Z,195.46
2022-07-30T06:50:38.911Z,204.10
2022-07-30T06:51:34.451Z,204.99
2022-07-30T06:52:29.724Z,202.58
2022-07-30T06:53:25.442Z,208.64
2022-07-30T06:54:20.844Z,203.09
2022-07-30T06:55:16.691Z,203.34
2022-07-30T06:56:11.986Z,208.90
2022-07-30T06:57:07.391Z,210.11
2022-07-30T06:58:03.114Z,207.85
2022-07-30T06:58:58.551Z,209.97
2022-07-30T06:59:56.426Z,211.87
2022-07-30T07:00:50.248Z,209.84
2022-07-30T07:01:45.736Z,211.19
2022-07-30T07:02:41.609Z,199.26
2022-07-30T07:03:39.589Z,194.65
2022-07-30T07:04:32.586Z,187.21
2022-07-30T07:05:27.587Z,192.48
2022-07-30T07:06:22.597Z,205.12
2022-07-30T07:07:40.244Z,199.38
2022-07-30T07:08:19.186Z,198.54
2022-07-30T07:09:14.208Z,208.51
2022-07-30T07:10:09.699Z,205.63
2022-07-30T07:11:05.388Z,198.66
2022-07-30T07:12:00.790Z,204.61
2022-07-30T07:12:56.250Z,215.35
2022-07-30T07:13:51.954Z,218.65
2022-07-30T07:14:47.382Z,220.86
2022-07-30T07:15:42.808Z,218.36
2022-07-30T07:16:39.495Z,211.60
2022-07-30T07:17:34.962Z,215.77
2022-07-30T07:18:30.691Z,220.56
2022-07-30T07:20:01.293Z,236.28
2022-07-30T07:20:22.961Z,246.95
2022-07-30T07:21:17.421Z,266.62
2022-07-30T07:22:13.241Z,280.05
2022-07-30T07:23:09.303Z,279.09
2022-07-30T07:24:03.929Z,283.68
2022-07-30T07:24:59.643Z,283.68
2022-07-30T07:25:55.184Z,293.58
2022-07-30T07:26:50.711Z,307.61
2022-07-30T07:27:46.875Z,329.88
2022-07-30T07:28:43.289Z,358.73
2022-07-30T07:29:38.230Z,365.53
2022-07-30T07:30:33.563Z,378.17
2022-07-30T07:32:06.033Z,373.01
2022-07-30T07:32:25.782Z,403.65
2022-07-30T07:33:20.349Z,362.30
2022-07-30T07:34:17.244Z,389.73
2022-07-30T07:35:11.420Z,399.06
2022-07-30T07:36:06.927Z,412.13
2022-07-30T07:37:03.733Z,408.10
2022-07-30T07:37:59.133Z,368.81
2022-07-30T07:38:54.554Z,359.13
2022-07-30T07:39:50.090Z,352.57
2022-07-30T07:40:45.579Z,368.40
2022-07-30T07:41:48.445Z,428.28
2022-07-30T07:42:40.402Z,469.27
2022-07-30T07:43:35.966Z,508.26
2022-07-30T07:44:31.456Z,612.90
2022-07-30T07:45:26.989Z,629.09
2022-07-30T07:46:33.627Z,623.21
2022-07-30T07:47:19.236Z,595.39
2022-07-30T07:48:13.659Z,670.18
2022-07-30T07:49:09.240Z,778.43
2022-07-30T07:50:04.214Z,835.94
2022-07-30T07:51:00.546Z,824.58
2022-07-30T07:51:54.247Z,856.87
2022-07-30T07:52:49.432Z,857.97
2022-07-30T07:53:52.112Z,824.07
2022-07-30T07:54:40.516Z,869.14
2022-07-30T07:55:34.596Z,937.50
2022-07-30T07:56:29.676Z,959.05
2022-07-30T07:57:24.911Z,977.31
2022-07-30T07:58:25.426Z,989.62
2022-07-30T07:59:16.048Z,1062.05
2022-07-30T08:00:10.139Z,1111.57
2022-07-30T08:01:05.273Z,1096.96
2022-07-30T08:02:00.661Z,1117.16
2022-07-30T08:02:56.962Z,1162.89
2022-07-30T08:03:52.293Z,1221.41
2022-07-30T08:04:48.156Z,1263.01
2022-07-30T08:06:01.984Z,1286.13
2022-07-30T08:06:40.466Z,1299.90
2022-07-30T08:07:35.061Z,1345.77
2022-07-30T08:08:31.060Z,1356.71
2022-07-30T08:09:26.381Z,1380.56
2022-07-30T08:10:23.260Z,1353.95
2022-07-30T08:11:17.770Z,1347.12
2022-07-30T08:12:13.625Z,1433.94
2022-07-30T08:13:48.608Z,1471.89
2022-07-30T08:14:06.100Z,1476.77
2022-07-30T08:15:00.707Z,1532.72
2022-07-30T08:15:56.604Z,1587.40
2022-07-30T08:16:52.008Z,1478.41
2022-07-30T08:17:47.428Z,1435.48
2022-07-30T08:18:43.166Z,1405.26
2022-07-30T08:19:38.749Z,1468.65
2022-07-30T08:20:34.675Z,1501.69
2022-07-30T08:21:29.852Z,1424.76
2022-07-30T08:22:25.291Z,1440.13
2022-07-30T08:23:21.022Z,1452.67
2022-07-30T08:24:16.437Z,1467.03
2022-07-30T08:25:11.913Z,1468.65
2022-07-30T08:26:09.193Z,1459.02
2022-07-30T08:27:04.167Z,1497.48
2022-07-30T08:27:59.766Z,1605.53
2022-07-30T08:28:55.226Z,1603.60
2022-07-30T08:29:50.686Z,1598.80
2022-07-30T08:30:46.433Z,1697.39
2022-07-30T08:31:41.995Z,1682.42
2022-07-30T08:32:37.866Z,1557.76
2022-07-30T08:33:33.198Z,1576.15
2022-07-30T08:34:28.632Z,1585.51
2022-07-30T08:35:24.395Z,1653.25
2022-07-30T08:36:24.106Z,1675.03
2022-07-30T08:37:16.273Z,1757.73
2022-07-30T08:38:10.646Z,1634.03
2022-07-30T08:39:06.521Z,1503.38
2022-07-30T08:40:02.156Z,1473.51
2022-07-30T08:40:57.479Z,1514.46
2022-07-30T08:41:53.997Z,1440.13
2022-07-30T08:42:49.494Z,1478.41
2022-07-30T08:43:45.350Z,1426.28
2022-07-30T08:44:40.793Z,1356.71
2022-07-30T08:45:36.307Z,1433.94
2022-07-30T08:46:32.150Z,1510.18
2022-07-30T08:47:27.575Z,1513.60
2022-07-30T08:48:23.334Z,1556.85
2022-07-30T08:49:18.789Z,1569.67
2022-07-30T08:50:16.709Z,1747.38
2022-07-30T08:51:10.221Z,1849.03
2022-07-30T08:52:05.674Z,1911.24
2022-07-30T08:53:01.089Z,1781.19
2022-07-30T08:53:56.446Z,1746.24
2022-07-30T08:54:52.312Z,1843.92
2022-07-30T08:55:47.767Z,1838.84
2022-07-30T08:56:43.082Z,1908.51
2022-07-30T08:57:38.956Z,1867.13
2022-07-30T08:58:34.429Z,1885.59
2022-07-30T09:00:00.062Z,1757.73
2022-07-30T09:00:26.663Z,1983.66
2022-07-30T09:01:21.586Z,2141.14
2022-07-30T09:02:16.890Z,2102.36
2022-07-30T09:03:13.741Z,1998.50
2022-07-30T09:04:07.964Z,1876.32
2022-07-30T09:05:03.398Z,1696.31
2022-07-30T09:06:00.095Z,1890.94
2022-07-30T09:06:55.297Z,2087.57
2022-07-30T09:07:50.739Z,2099.06
2022-07-30T09:08:47.042Z,2201.15
2022-07-30T09:09:42.618Z,2202.97
2022-07-30T09:10:38.102Z,2129.19
2022-07-30T09:11:33.473Z,2132.59
2022-07-30T09:12:29.748Z,2215.77
2022-07-30T09:13:25.186Z,2144.58
2022-07-30T09:14:20.496Z,2317.71
2022-07-30T09:15:16.077Z,2258.88
2022-07-30T09:16:12.408Z,2350.35
2022-07-30T09:17:07.812Z,2495.33
2022-07-30T09:18:03.663Z,2599.80
2022-07-30T09:18:59.284Z,2766.84
2022-07-30T09:19:54.798Z,2892.74
2022-07-30T09:20:50.650Z,2686.12
2022-07-30T09:21:46.223Z,2633.14
2022-07-30T09:22:42.074Z,2738.46
2022-07-30T09:23:37.407Z,2646.18
2022-07-30T09:24:32.847Z,2381.80
2022-07-30T09:25:28.588Z,2323.76
2022-07-30T09:26:24.055Z,1850.31
2022-07-30T09:27:19.494Z,1908.51
2022-07-30T09:28:16.897Z,2137.71
2022-07-30T09:29:11.264Z,2028.88
2022-07-30T09:30:07.093Z,2107.34
2022-07-30T09:31:02.585Z,2130.89
2022-07-30T09:31:58.206Z,2321.74
2022-07-30T09:32:53.784Z,2530.81
2022-07-30T09:33:49.445Z,2579.71
2022-07-30T09:34:45.274Z,2447.30
2022-07-30T09:35:40.614Z,2411.92
2022-07-30T09:36:36.075Z,2564.84
2022-07-30T09:37:31.812Z,2678.03
2022-07-30T09:38:27.223Z,2555.02
2022-07-30T09:39:22.669Z,2511.76
2022-07-30T09:40:18.946Z,2680.72
2022-07-30T09:41:36.124Z,2735.66
2022-07-30T09:42:11.373Z,2654.08
2022-07-30T09:43:05.822Z,2749.74
2022-07-30T09:44:01.257Z,2640.95
2022-07-30T09:44:56.981Z,2420.67
2022-07-30T09:45:57.159Z,2422.87
2022-07-30T09:46:49.402Z,2425.07
2022-07-30T09:47:43.771Z,2307.69
2022-07-30T09:48:39.413Z,2239.93
2022-07-30T09:49:35.783Z,2465.37
2022-07-30T09:50:31.149Z,2552.58
2022-07-30T09:51:56.359Z,2516.49
2022-07-30T09:52:27.032Z,2547.71
2022-07-30T09:53:19.224Z,2648.81
2022-07-30T09:54:14.113Z,2454.04
2022-07-30T09:55:09.370Z,2433.91
2022-07-30T09:56:04.875Z,2567.31
2022-07-30T09:57:01.295Z,2540.44
2022-07-30T09:57:57.705Z,2582.21
2022-07-30T09:58:52.442Z,2467.65
2022-07-30T09:59:47.892Z,2354.50
2022-07-30T10:00:43.403Z,2247.48
2022-07-30T10:01:49.531Z,2474.51
2022-07-30T10:02:35.763Z,2592.23
2022-07-30T10:03:34.181Z,2727.27
2022-07-30T10:04:26.190Z,2696.97
2022-07-30T10:05:20.353Z,2557.47
2022-07-30T10:06:15.356Z,2445.05
2022-07-30T10:07:10.480Z,2317.71
2022-07-30T10:08:09.450Z,2373.33
2022-07-30T10:09:01.461Z,2348.28
2022-07-30T10:09:56.554Z,2260.80
2022-07-30T10:10:51.107Z,2087.57
2022-07-30T10:11:46.162Z,1995.52
2022-07-30T10:12:41.869Z,2039.72
2022-07-30T10:13:37.377Z,1899.00
2022-07-30T10:14:33.194Z,2012.06
2022-07-30T10:15:28.508Z,1920.86
2022-07-30T10:16:24.058Z,1861.93
2022-07-30T10:17:19.134Z,2044.41
2022-07-30T10:18:14.146Z,1863.22
2022-07-30T10:19:18.041Z,1698.47
2022-07-30T10:20:08.255Z,1500.84
2022-07-30T10:21:00.047Z,1484.98
2022-07-30T10:21:55.492Z,1409.71
2022-07-30T10:22:50.961Z,1417.20
2022-07-30T10:24:43.120Z,1471.89
2022-07-30T10:24:46.592Z,1451.09
2022-07-30T10:25:49.049Z,1584.57
2022-07-30T10:26:34.327Z,1599.76
2022-07-30T10:27:29.029Z,1541.57
2022-07-30T10:28:24.414Z,1483.33
2022-07-30T10:29:20.061Z,1513.60
2022-07-30T10:30:15.617Z,1473.51
2022-07-30T10:31:48.388Z,1303.71
2022-07-30T10:32:09.401Z,1420.21
2022-07-30T10:33:02.414Z,1509.33
2022-07-30T10:33:57.834Z,1484.98
2022-07-30T10:34:53.204Z,1392.07
2022-07-30T10:35:49.609Z,1210.33
2022-07-30T10:36:46.813Z,1165.94
2022-07-30T10:37:42.145Z,1084.48
2022-07-30T10:38:39.189Z,984.51
2022-07-30T10:39:34.731Z,1084.48
2022-07-30T10:40:30.797Z,1198.38
2022-07-30T10:41:42.887Z,1323.09
2022-07-30T10:42:20.296Z,1429.34
2022-07-30T10:43:15.990Z,1455.83
2022-07-30T10:44:09.464Z,1254.70
2022-07-30T10:45:04.517Z,1066.29
2022-07-30T10:45:59.523Z,1057.01
2022-07-30T10:46:54.613Z,1179.33
2022-07-30T10:47:49.917Z,1140.05
2022-07-30T10:48:44.762Z,1015.98
2022-07-30T10:49:40.985Z,1097.86
2022-07-30T10:50:34.904Z,1089.80
2022-07-30T10:51:34.696Z,1155.84
2022-07-30T10:52:28.881Z,1188.78
2022-07-30T10:53:26.917Z,1244.18
2022-07-30T10:54:18.987Z,1278.74
2022-07-30T10:55:13.073Z,1328.36
2022-07-30T10:56:08.190Z,1418.70
2022-07-30T10:57:03.500Z,1308.82
2022-07-30T10:57:58.213Z,1328.36
2022-07-30T10:58:53.813Z,1255.88
2022-07-30T10:59:49.202Z,1356.71
2022-07-30T11:00:44.720Z,1420.21
2022-07-30T11:01:39.759Z,1324.41
2022-07-30T11:02:34.794Z,1209.24
2022-07-30T11:03:40.410Z,1251.17
2022-07-30T11:04:26.865Z,1430.87
2022-07-30T11:05:27.383Z,1288.61
2022-07-30T11:06:17.053Z,1254.70
2022-07-30T11:07:17.104Z,1316.57
2022-07-30T11:08:07.290Z,1220.29
2022-07-30T11:09:02.746Z,1250.00
2022-07-30T11:10:05.372Z,1240.71
2022-07-30T11:10:55.734Z,1162.89
2022-07-30T11:12:01.977Z,1152.85
2022-07-30T11:12:46.840Z,1158.85
2022-07-30T11:13:42.612Z,1159.86
2022-07-30T11:14:37.140Z,1208.15
2022-07-30T11:15:33.189Z,1224.77
2022-07-30T11:16:29.254Z,1374.87
2022-07-30T11:17:24.031Z,1437.03
2022-07-30T11:18:19.580Z,1441.69
2022-07-30T11:19:56.793Z,1506.77
2022-07-30T11:20:12.131Z,1523.97
2022-07-30T11:21:07.631Z,1650.19
2022-07-30T11:22:04.433Z,1901.71
2022-07-30T11:22:58.939Z,2012.06
2022-07-30T11:23:54.961Z,2041.28
2022-07-30T11:24:49.966Z,2053.85
2022-07-30T11:25:52.016Z,2010.54